createdAt,value
2018-07-02T00:02:12.133Z,19.90
2018-07-02T00:04:40.441Z,19.90
2018-07-02T00:07:09.506Z,20.00
2018-07-02T00:09:37.810Z,19.80
2018-07-02T00:12:06.090Z,19.90
2018-07-02T00:14:34.401Z,19.80
2018-07-02T00:17:02.677Z,19.80
2018-07-02T00:19:31.002Z,19.70
2018-07-02T00:21:59.273Z,19.60
2018-07-02T00:24:27.560Z,19.60
2018-07-02T00:26:55.876Z,19.60
2018-07-02T00:29:24.181Z,19.50
2018-07-02T00:31:52.486Z,19.50
2018-07-02T00:34:21.953Z,19.50
2018-07-02T00:36:51.346Z,19.50
2018-07-02T00:39:20.662Z,19.40
2018-07-02T00:41:48.991Z,19.40
2018-07-02T00:44:18.006Z,19.40
2018-07-02T00:46:46.354Z,19.40
2018-07-02T00:49:14.628Z,19.40
2018-07-02T00:51:42.945Z,19.40
2018-07-02T00:54:11.249Z,19.30
2018-07-02T00:56:39.524Z,19.30
2018-07-02T00:59:07.834Z,19.30
2018-07-02T01:01:36.117Z,19.30
2018-07-02T01:04:04.425Z,19.40
2018-07-02T01:06:32.740Z,19.30
2018-07-02T01:09:01.043Z,19.20
2018-07-02T01:11:29.324Z,19.20
2018-07-02T01:13:57.641Z,19.10
2018-07-02T01:16:25.921Z,19.10
2018-07-02T01:18:54.228Z,19.00
2018-07-02T01:21:22.574Z,19.10
2018-07-02T01:23:52.217Z,19.10
2018-07-02T01:26:21.549Z,19.10
2018-07-02T01:28:49.852Z,19.10
2018-07-02T01:31:18.180Z,19.10
2018-07-02T01:33:47.782Z,19.00
2018-07-02T01:36:15.341Z,19.00
2018-07-02T01:38:43.634Z,18.90
2018-07-02T01:41:11.948Z,18.90
2018-07-02T01:43:40.221Z,18.90
2018-07-02T01:46:08.518Z,18.80
2018-07-02T01:48:36.816Z,18.80
2018-07-02T01:51:05.117Z,18.90
2018-07-02T01:53:33.429Z,18.90
2018-07-02T01:56:01.701Z,18.90
2018-07-02T01:58:30.001Z,18.80
2018-07-02T02:00:58.289Z,18.70
2018-07-02T02:03:26.603Z,18.60
2018-07-02T02:05:54.942Z,18.60
2018-07-02T02:08:23.271Z,18.50
2018-07-02T02:10:51.597Z,18.50
2018-07-02T02:13:19.912Z,18.50
2018-07-02T02:15:48.231Z,18.50
2018-07-02T02:18:17.216Z,18.40
2018-07-02T02:20:45.488Z,18.30
2018-07-02T02:23:13.765Z,18.10
2018-07-02T02:25:42.076Z,18.10
2018-07-02T02:28:10.375Z,18.10
2018-07-02T02:30:38.689Z,18.00
2018-07-02T02:33:07.066Z,18.00
2018-07-02T02:35:34.569Z,17.90
2018-07-02T02:38:02.853Z,18.00
2018-07-02T02:40:31.148Z,17.90
2018-07-02T02:42:59.423Z,17.90
2018-07-02T02:45:27.733Z,17.90
2018-07-02T02:47:56.007Z,17.80
2018-07-02T02:50:26.273Z,17.80
2018-07-02T02:52:54.654Z,17.80
2018-07-02T02:55:22.951Z,17.70
2018-07-02T02:57:51.213Z,17.60
2018-07-02T03:00:20.745Z,17.60
2018-07-02T03:02:50.175Z,17.60
2018-07-02T03:05:18.436Z,17.60
2018-07-02T03:07:46.404Z,17.60
2018-07-02T03:10:14.693Z,17.50
2018-07-02T03:12:43.011Z,17.40
2018-07-02T03:15:11.292Z,17.40
2018-07-02T03:17:39.578Z,17.30
2018-07-02T03:20:07.872Z,17.30
2018-07-02T03:22:36.141Z,17.40
2018-07-02T03:25:04.440Z,17.40
2018-07-02T03:27:32.764Z,17.40
2018-07-02T03:30:01.046Z,17.40
2018-07-02T03:32:29.318Z,17.30
2018-07-02T03:35:01.179Z,17.20
2018-07-02T03:37:29.492Z,17.20
2018-07-02T03:39:57.808Z,17.20
2018-07-02T03:42:26.118Z,17.20
2018-07-02T03:44:58.030Z,17.10
2018-07-02T03:47:26.339Z,17.10
2018-07-02T03:49:54.621Z,17.10
2018-07-02T03:52:22.940Z,17.10
2018-07-02T03:54:51.219Z,17.10
2018-07-02T03:57:20.403Z,17.20
2018-07-02T03:59:49.456Z,17.10
2018-07-02T04:02:18.471Z,17.10
2018-07-02T04:04:47.632Z,17.10
2018-07-02T04:07:16.411Z,17.10
2018-07-02T04:09:44.684Z,17.10
2018-07-02T04:12:12.994Z,17.10
2018-07-02T04:14:41.289Z,17.10
2018-07-02T04:17:09.584Z,17.00
2018-07-02T04:19:37.906Z,17.10
2018-07-02T04:22:06.196Z,17.00
2018-07-02T04:24:37.976Z,17.00
2018-07-02T04:27:06.249Z,17.00
2018-07-02T04:29:34.553Z,17.00
2018-07-02T04:32:02.845Z,16.90
2018-07-02T04:34:33.141Z,16.80
2018-07-02T04:37:01.438Z,16.90
2018-07-02T04:39:29.754Z,16.90
2018-07-02T04:41:58.067Z,16.90
2018-07-02T04:44:26.350Z,16.90
2018-07-02T04:46:53.889Z,16.90
2018-07-02T04:49:22.160Z,16.90
2018-07-02T04:51:51.672Z,16.90
2018-07-02T04:54:20.184Z,16.90
2018-07-02T04:56:48.476Z,17.10
2018-07-02T04:59:21.175Z,17.10
2018-07-02T05:01:50.460Z,17.10
2018-07-02T05:04:19.618Z,17.10
2018-07-02T05:06:48.486Z,17.20
2018-07-02T05:09:17.557Z,17.20
2018-07-02T05:11:46.565Z,17.30
2018-07-02T05:14:14.839Z,17.30
2018-07-02T05:16:43.147Z,17.20
2018-07-02T05:19:11.404Z,17.10
2018-07-02T05:21:39.890Z,17.20
2018-07-02T05:24:08.036Z,17.30
2018-07-02T05:26:36.294Z,17.30
2018-07-02T05:29:04.583Z,17.40
2018-07-02T05:31:32.841Z,17.30
2018-07-02T05:34:01.127Z,17.40
2018-07-02T05:36:29.389Z,17.50
2018-07-02T05:38:57.751Z,17.50
2018-07-02T05:41:25.945Z,17.40
2018-07-02T05:43:54.297Z,17.50
2018-07-02T05:46:22.572Z,17.60
2018-07-02T05:48:57.049Z,17.50
2018-07-02T05:51:25.319Z,17.50
2018-07-02T05:53:53.618Z,17.60
2018-07-02T05:56:21.126Z,17.50
2018-07-02T05:58:50.851Z,17.70
2018-07-02T06:01:20.180Z,17.70
2018-07-02T06:03:48.441Z,17.80
2018-07-02T06:06:17.640Z,17.90
2018-07-02T06:08:46.581Z,18.00
2018-07-02T06:11:14.875Z,18.10
2018-07-02T06:13:43.141Z,18.10
2018-07-02T06:16:11.409Z,18.10
2018-07-02T06:18:39.689Z,18.20
2018-07-02T06:21:07.951Z,18.20
2018-07-02T06:23:36.246Z,18.30
2018-07-02T06:26:03.750Z,18.30
2018-07-02T06:28:31.285Z,18.30
2018-07-02T06:30:59.540Z,18.40
2018-07-02T06:33:27.816Z,18.50
2018-07-02T06:35:56.086Z,18.60
2018-07-02T06:38:24.388Z,18.80
2018-07-02T06:40:52.675Z,18.80
2018-07-02T06:43:20.974Z,19.10
2018-07-02T06:45:48.500Z,19.10
2018-07-02T06:48:17.604Z,19.00
2018-07-02T06:50:46.589Z,19.40
2018-07-02T06:53:14.837Z,19.60
2018-07-02T06:55:43.129Z,19.60
2018-07-02T06:58:10.639Z,19.60
2018-07-02T07:00:38.908Z,19.50
2018-07-02T07:03:07.195Z,19.60
2018-07-02T07:05:35.444Z,19.60
2018-07-02T07:08:03.715Z,19.80
2018-07-02T07:10:32.928Z,19.90
2018-07-02T07:13:01.210Z,20.00
2018-07-02T07:15:29.502Z,20.10
2018-07-02T07:17:57.773Z,20.20
2018-07-02T07:20:27.996Z,20.30
2018-07-02T07:22:56.289Z,20.30
2018-07-02T07:25:24.557Z,20.50
2018-07-02T07:27:52.887Z,20.50
2018-07-02T07:30:21.185Z,20.90
2018-07-02T07:32:50.466Z,21.00
2018-07-02T07:35:19.440Z,21.10
2018-07-02T07:37:50.057Z,21.10
2018-07-02T07:40:18.353Z,21.20
2018-07-02T07:42:47.396Z,21.30
2018-07-02T07:45:14.897Z,21.30
2018-07-02T07:47:43.180Z,21.60
2018-07-02T07:50:11.434Z,21.60
2018-07-02T07:52:39.709Z,21.70
2018-07-02T07:55:07.962Z,21.80
2018-07-02T07:57:36.246Z,22.00
2018-07-02T08:00:04.537Z,22.00
2018-07-02T08:02:32.787Z,22.10
2018-07-02T08:05:04.845Z,22.30
2018-07-02T08:07:33.059Z,22.30
2018-07-02T08:10:01.347Z,22.50
2018-07-02T08:12:29.692Z,22.70
2018-07-02T08:15:04.864Z,22.70
2018-07-02T08:17:33.123Z,22.70
2018-07-02T08:20:01.423Z,22.70
2018-07-02T08:22:29.686Z,22.80
2018-07-02T08:24:57.997Z,23.10
2018-07-02T08:27:26.257Z,23.20
2018-07-02T08:29:54.539Z,23.20
2018-07-02T08:32:22.819Z,23.30
2018-07-02T08:34:51.089Z,23.50
2018-07-02T08:37:20.212Z,23.50
2018-07-02T08:39:50.300Z,23.70
2018-07-02T08:42:20.268Z,23.70
2018-07-02T08:44:50.795Z,23.90
2018-07-02T08:47:19.741Z,23.90
2018-07-02T08:49:48.014Z,24.00
2018-07-02T08:52:17.115Z,24.30
2018-07-02T08:54:45.408Z,24.30
2018-07-02T08:57:13.670Z,24.40
2018-07-02T08:59:41.978Z,24.50
2018-07-02T09:02:10.242Z,24.50
2018-07-02T09:04:38.553Z,24.50
2018-07-02T09:07:06.809Z,24.60
2018-07-02T09:09:35.103Z,24.70
2018-07-02T09:12:03.401Z,24.70
2018-07-02T09:14:32.645Z,24.70
2018-07-02T09:17:00.932Z,24.70
2018-07-02T09:19:29.202Z,24.90
2018-07-02T09:21:57.605Z,25.10
2018-07-02T09:24:26.799Z,25.00
2018-07-02T09:26:55.105Z,25.20
2018-07-02T09:29:23.378Z,25.20
2018-07-02T09:31:51.655Z,25.20
2018-07-02T09:34:20.321Z,25.20
2018-07-02T09:36:48.352Z,25.20
2018-07-02T09:39:17.682Z,25.40
2018-07-02T09:41:46.621Z,25.40
2018-07-02T09:44:14.868Z,25.60
2018-07-02T09:46:43.704Z,25.60
2018-07-02T09:49:11.981Z,25.70
2018-07-02T09:51:40.267Z,25.80
2018-07-02T09:54:08.517Z,25.80
2018-07-02T09:56:36.818Z,25.90
2018-07-02T09:59:05.069Z,25.90
2018-07-02T10:01:33.349Z,25.90
2018-07-02T10:04:01.596Z,26.10
2018-07-02T10:06:29.880Z,26.10
2018-07-02T10:08:58.133Z,26.30
2018-07-02T10:11:26.454Z,26.30
2018-07-02T10:13:54.708Z,26.40
2018-07-02T10:16:22.975Z,26.40
2018-07-02T10:18:51.264Z,26.40
2018-07-02T10:21:20.152Z,26.40
2018-07-02T10:23:48.464Z,26.50
2018-07-02T10:26:17.643Z,26.40
2018-07-02T10:28:46.537Z,26.30
2018-07-02T10:31:14.842Z,26.40
2018-07-02T10:33:43.080Z,26.50
2018-07-02T10:36:11.332Z,26.70
2018-07-02T10:38:39.622Z,26.80
2018-07-02T10:41:07.981Z,27.00
2018-07-02T10:43:36.289Z,27.00
2018-07-02T10:46:04.565Z,27.00
2018-07-02T10:48:32.824Z,27.10
2018-07-02T10:51:01.115Z,27.40
2018-07-02T10:53:29.395Z,27.50
2018-07-02T10:55:57.673Z,27.30
2018-07-02T10:58:25.976Z,27.60
2018-07-02T11:00:54.227Z,27.60
2018-07-02T11:03:22.507Z,27.60
2018-07-02T11:05:50.788Z,27.60
2018-07-02T11:08:19.832Z,27.70
2018-07-02T11:10:50.242Z,27.80
2018-07-02T11:13:19.721Z,27.70
2018-07-02T11:15:49.303Z,27.90
2018-07-02T11:18:18.061Z,27.80
2018-07-02T11:20:47.107Z,28.00
2018-07-02T11:23:15.390Z,28.00
2018-07-02T11:25:43.670Z,28.20
2018-07-02T11:28:11.927Z,28.30
2018-07-02T11:30:40.256Z,28.40
2018-07-02T11:33:07.779Z,28.40
2018-07-02T11:35:36.033Z,28.40
2018-07-02T11:38:04.483Z,28.50
2018-07-02T11:40:32.731Z,28.40
2018-07-02T11:43:01.093Z,28.40
2018-07-02T11:45:28.636Z,28.40
2018-07-02T11:47:56.909Z,28.40
2018-07-02T11:50:25.221Z,28.40
2018-07-02T11:52:54.296Z,28.40
2018-07-02T11:55:22.549Z,28.40
2018-07-02T11:57:56.653Z,28.30
2018-07-02T12:00:24.960Z,28.40
2018-07-02T12:02:53.244Z,28.50
2018-07-02T12:05:21.509Z,28.60
2018-07-02T12:07:49.799Z,28.40
2018-07-02T12:10:19.503Z,28.40
2018-07-02T12:12:49.466Z,28.40
2018-07-02T12:15:18.467Z,28.30
2018-07-02T12:17:47.862Z,28.40
2018-07-02T12:20:16.619Z,28.40
2018-07-02T12:22:44.972Z,28.70
2018-07-02T12:25:13.232Z,28.70
2018-07-02T12:27:41.600Z,28.60
2018-07-02T12:30:09.901Z,28.70
2018-07-02T12:32:38.170Z,28.60
2018-07-02T12:35:06.472Z,28.60
2018-07-02T12:37:34.776Z,28.70
2018-07-02T12:40:03.060Z,28.90
2018-07-02T12:42:38.042Z,28.80
2018-07-02T12:45:05.579Z,28.80
2018-07-02T12:47:33.959Z,28.90
2018-07-02T12:50:02.226Z,28.80
2018-07-02T12:52:30.539Z,29.00
2018-07-02T12:54:58.854Z,29.00
2018-07-02T12:57:27.141Z,29.10
2018-07-02T12:59:55.410Z,29.30
2018-07-02T13:02:23.742Z,29.10
2018-07-02T13:04:52.017Z,29.00
2018-07-02T13:07:21.772Z,29.10
2018-07-02T13:09:50.690Z,29.10
2018-07-02T13:12:19.306Z,29.10
2018-07-02T13:14:50.213Z,29.10
2018-07-02T13:17:18.500Z,29.30
2018-07-02T13:19:48.259Z,29.40
2018-07-02T13:22:17.587Z,29.60
2018-07-02T13:24:47.957Z,29.40
2018-07-02T13:27:16.695Z,29.40
2018-07-02T13:29:44.974Z,29.40
2018-07-02T13:32:13.271Z,29.50
2018-07-02T13:34:41.532Z,29.50
2018-07-02T13:37:09.862Z,29.40
2018-07-02T13:39:38.139Z,29.50
2018-07-02T13:42:13.388Z,29.60
2018-07-02T13:44:41.652Z,29.70
2018-07-02T13:47:09.943Z,29.70
2018-07-02T13:49:38.210Z,29.70
2018-07-02T13:52:06.511Z,29.60
2018-07-02T13:54:34.773Z,29.60
2018-07-02T13:57:06.801Z,29.70
2018-07-02T13:59:35.090Z,29.70
2018-07-02T14:02:03.392Z,29.80
2018-07-02T14:04:31.716Z,29.80
2018-07-02T14:07:00.021Z,29.90
2018-07-02T14:09:28.309Z,30.00
2018-07-02T14:11:56.647Z,30.10
2018-07-02T14:14:24.929Z,30.00
2018-07-02T14:16:53.163Z,30.00
2018-07-02T14:19:21.457Z,30.00
2018-07-02T14:21:50.662Z,30.00
2018-07-02T14:24:20.317Z,29.80
2018-07-02T14:26:50.298Z,29.80
2018-07-02T14:29:19.380Z,30.00
2018-07-02T14:31:48.900Z,30.20
2018-07-02T14:34:17.543Z,30.20
2018-07-02T14:36:45.102Z,30.10
2018-07-02T14:39:13.443Z,30.30
2018-07-02T14:41:41.682Z,30.30
2018-07-02T14:44:09.948Z,30.10
2018-07-02T14:46:38.253Z,30.10
2018-07-02T14:49:06.515Z,30.20
2018-07-02T14:51:34.813Z,30.00
2018-07-02T14:54:03.097Z,30.00
2018-07-02T14:56:31.376Z,30.10
2018-07-02T14:58:59.670Z,30.10
2018-07-02T15:01:27.951Z,30.00
2018-07-02T15:03:56.257Z,29.90
2018-07-02T15:06:23.769Z,29.90
2018-07-02T15:08:52.089Z,29.90
2018-07-02T15:11:21.321Z,30.00
2018-07-02T15:13:50.229Z,30.00
2018-07-02T15:16:20.245Z,29.90
2018-07-02T15:18:48.940Z,29.90
2018-07-02T15:21:17.194Z,29.80
2018-07-02T15:23:45.481Z,29.80
2018-07-02T15:26:13.756Z,29.80
2018-07-02T15:28:42.063Z,29.80
2018-07-02T15:31:10.334Z,29.80
2018-07-02T15:33:38.616Z,29.70
2018-07-02T15:36:06.873Z,29.70
2018-07-02T15:38:34.414Z,29.70
2018-07-02T15:41:02.673Z,29.80
2018-07-02T15:43:31.004Z,29.80
2018-07-02T15:45:59.263Z,29.90
2018-07-02T15:48:27.537Z,29.90
2018-07-02T15:50:55.837Z,29.80
2018-07-02T15:53:24.113Z,29.70
2018-07-02T15:55:52.422Z,29.70
2018-07-02T15:58:21.764Z,29.60
2018-07-02T16:00:51.227Z,29.60
2018-07-02T16:03:20.244Z,29.60
2018-07-02T16:05:49.482Z,29.50
2018-07-02T16:08:18.345Z,29.50
2018-07-02T16:10:46.690Z,29.40
2018-07-02T16:13:14.943Z,29.40
2018-07-02T16:15:43.241Z,29.20
2018-07-02T16:18:11.518Z,29.00
2018-07-02T16:20:39.822Z,29.10
2018-07-02T16:23:08.093Z,29.10
2018-07-02T16:25:36.398Z,29.00
2018-07-02T16:28:04.660Z,29.00
2018-07-02T16:30:32.916Z,29.00
2018-07-02T16:33:01.196Z,28.90
2018-07-02T16:35:29.460Z,28.80
2018-07-02T16:37:58.926Z,28.80
2018-07-02T16:40:27.180Z,28.70
2018-07-02T16:42:56.512Z,28.60
2018-07-02T16:45:24.766Z,28.70
2018-07-02T16:47:53.059Z,28.60
2018-07-02T16:50:21.324Z,28.60
2018-07-02T16:52:50.273Z,28.50
2018-07-02T16:55:18.319Z,28.50
2018-07-02T16:57:47.173Z,28.50
2018-07-02T17:00:15.468Z,28.50
2018-07-02T17:02:43.762Z,28.40
2018-07-02T17:05:12.023Z,28.30
2018-07-02T17:07:39.537Z,28.30
2018-07-02T17:10:07.792Z,28.30
2018-07-02T17:12:36.090Z,28.30
2018-07-02T17:15:04.366Z,28.30
2018-07-02T17:17:32.672Z,28.20
2018-07-02T17:20:00.946Z,28.20
2018-07-02T17:22:29.244Z,28.10
2018-07-02T17:24:57.540Z,28.00
2018-07-02T17:27:25.840Z,27.90
2018-07-02T17:29:54.124Z,27.90
2018-07-02T17:32:21.659Z,27.90
2018-07-02T17:34:50.382Z,27.60
2018-07-02T17:37:19.302Z,27.60
2018-07-02T17:39:48.240Z,27.70
2018-07-02T17:42:17.448Z,27.60
2018-07-02T17:44:45.714Z,27.60
2018-07-02T17:47:13.992Z,27.60
2018-07-02T17:49:43.156Z,27.40
2018-07-02T17:52:11.450Z,27.30
2018-07-02T17:54:39.701Z,27.10
2018-07-02T17:57:07.248Z,27.10
2018-07-02T17:59:35.515Z,26.90
2018-07-02T18:02:03.835Z,27.00
2018-07-02T18:04:32.117Z,26.90
2018-07-02T18:07:00.419Z,26.90
2018-07-02T18:09:28.713Z,26.90
2018-07-02T18:11:56.975Z,26.90
2018-07-02T18:14:25.294Z,26.70
2018-07-02T18:16:53.584Z,26.70
2018-07-02T18:19:21.432Z,26.70
2018-07-02T18:21:50.256Z,26.50
2018-07-02T18:24:19.389Z,26.60
2018-07-02T18:26:48.292Z,26.50
2018-07-02T18:29:17.228Z,26.60
2018-07-02T18:31:45.499Z,26.50
2018-07-02T18:34:13.772Z,26.40
2018-07-02T18:36:42.047Z,26.20
2018-07-02T18:39:10.359Z,26.00
2018-07-02T18:41:38.621Z,25.90
2018-07-02T18:44:06.918Z,25.70
2018-07-02T18:46:35.177Z,25.60
2018-07-02T18:49:03.528Z,25.40
2018-07-02T18:51:31.780Z,25.30
2018-07-02T18:54:00.055Z,25.20
2018-07-02T18:56:28.307Z,25.10
2018-07-02T18:58:56.584Z,25.10
2018-07-02T19:01:24.883Z,25.00
2018-07-02T19:03:53.154Z,24.90
2018-07-02T19:06:21.748Z,24.80
2018-07-02T19:08:51.260Z,24.80
2018-07-02T19:11:20.526Z,24.80
2018-07-02T19:13:48.793Z,24.80
2018-07-02T19:16:17.929Z,24.70
2018-07-02T19:18:46.894Z,24.70
2018-07-02T19:21:15.177Z,24.70
2018-07-02T19:23:43.428Z,24.70
2018-07-02T19:26:11.734Z,24.60
2018-07-02T19:28:39.986Z,24.50
2018-07-02T19:31:08.239Z,24.40
2018-07-02T19:33:36.541Z,24.40
2018-07-02T19:36:04.815Z,24.40
2018-07-02T19:38:33.100Z,24.30
2018-07-02T19:41:01.369Z,24.20
2018-07-02T19:43:29.661Z,24.30
2018-07-02T19:45:57.932Z,24.30
2018-07-02T19:48:26.213Z,24.10
2018-07-02T19:50:54.472Z,24.10
2018-07-02T19:53:22.774Z,24.00
2018-07-02T19:55:52.416Z,24.00
2018-07-02T19:58:21.183Z,24.00
2018-07-02T20:00:50.175Z,23.80
2018-07-02T20:03:18.480Z,23.70
2018-07-02T20:05:47.917Z,23.70
2018-07-02T20:08:16.749Z,23.70
2018-07-02T20:10:45.107Z,23.70
2018-07-02T20:13:13.340Z,23.60
2018-07-02T20:15:41.604Z,23.60
2018-07-02T20:18:09.897Z,23.60
2018-07-02T20:20:38.154Z,23.60
2018-07-02T20:23:05.666Z,23.50
2018-07-02T20:25:33.917Z,23.40
2018-07-02T20:28:02.201Z,23.30
2018-07-02T20:30:30.477Z,23.20
2018-07-02T20:32:58.760Z,23.20
2018-07-02T20:35:27.036Z,23.10
2018-07-02T20:37:55.327Z,23.20
2018-07-02T20:40:23.575Z,23.10
2018-07-02T20:42:51.084Z,23.10
2018-07-02T20:45:20.946Z,23.00
2018-07-02T20:47:50.452Z,22.90
2018-07-02T20:50:19.413Z,22.90
2018-07-02T20:52:49.511Z,22.90
2018-07-02T20:55:17.792Z,22.90
2018-07-02T20:57:46.048Z,22.80
2018-07-02T21:00:15.222Z,22.80
2018-07-02T21:02:43.504Z,22.80
2018-07-02T21:05:11.808Z,22.80
2018-07-02T21:07:40.081Z,22.70
2018-07-02T21:10:08.397Z,22.60
2018-07-02T21:12:36.631Z,22.60
2018-07-02T21:15:04.927Z,22.60
2018-07-02T21:17:33.194Z,22.60
2018-07-02T21:20:01.471Z,22.50
2018-07-02T21:22:28.962Z,22.40
2018-07-02T21:24:57.241Z,22.20
2018-07-02T21:27:25.532Z,22.20
2018-07-02T21:29:53.831Z,22.10
2018-07-02T21:32:22.088Z,22.20
2018-07-02T21:34:51.311Z,22.10
2018-07-02T21:37:19.644Z,22.10
2018-07-02T21:39:49.584Z,22.10
2018-07-02T21:42:18.535Z,22.00
2018-07-02T21:44:49.609Z,22.00
2018-07-02T21:47:19.791Z,21.90
2018-07-02T21:49:50.466Z,21.90
2018-07-02T21:52:19.627Z,22.00
2018-07-02T21:54:50.200Z,21.80
2018-07-02T21:57:18.487Z,21.80
2018-07-02T21:59:46.814Z,21.80
2018-07-02T22:02:15.093Z,21.80
2018-07-02T22:04:42.594Z,21.80
2018-07-02T22:07:10.876Z,21.80
2018-07-02T22:09:39.147Z,21.70
2018-07-02T22:12:07.473Z,21.70
2018-07-02T22:14:35.733Z,21.80
2018-07-02T22:17:04.013Z,21.70
2018-07-02T22:19:32.302Z,21.60
2018-07-02T22:22:00.559Z,21.60
2018-07-02T22:24:28.841Z,21.60
2018-07-02T22:26:57.093Z,21.60
2018-07-02T22:29:25.394Z,21.50
2018-07-02T22:31:53.683Z,21.50
2018-07-02T22:34:21.191Z,21.50
2018-07-02T22:36:50.497Z,21.40
2018-07-02T22:39:18.770Z,21.30
2018-07-02T22:41:49.401Z,21.40
2018-07-02T22:44:20.011Z,21.30
2018-07-02T22:46:50.042Z,21.20
2018-07-02T22:49:19.932Z,21.20
2018-07-02T22:51:49.935Z,21.20
2018-07-02T22:54:20.738Z,21.10
2018-07-02T22:56:50.301Z,21.10
2018-07-02T22:59:19.377Z,21.00
2018-07-02T23:01:50.111Z,20.90
2018-07-02T23:04:18.378Z,20.90
2018-07-02T23:06:47.769Z,20.90
2018-07-02T23:09:16.088Z,20.90
2018-07-02T23:11:45.016Z,20.90
2018-07-02T23:14:13.271Z,20.80
2018-07-02T23:16:41.566Z,20.80
2018-07-02T23:19:09.847Z,20.80
2018-07-02T23:21:38.109Z,20.70
2018-07-02T23:24:06.386Z,20.60
2018-07-02T23:26:34.679Z,20.60
2018-07-02T23:29:02.992Z,20.60
2018-07-02T23:31:31.274Z,20.60
2018-07-02T23:33:59.556Z,20.50
2018-07-02T23:36:27.859Z,20.60
2018-07-02T23:38:55.357Z,20.60
2018-07-02T23:41:23.640Z,20.40
2018-07-02T23:43:51.132Z,20.40
2018-07-02T23:46:19.397Z,20.30
2018-07-02T23:48:48.846Z,20.20
2018-07-02T23:51:18.009Z,20.10
2018-07-02T23:53:47.009Z,20.10
2018-07-02T23:56:15.315Z,20.10
2018-07-02T23:58:43.611Z,20.10
